Data for 05/07/2008

Time Sea-Level Adjusted Pressure Absolute Pressure Temperature Relative Humidity Dew Point   
(mb) (inHg) (mb) (inHg) (C) (F) (%) (C) (F)
00:05 1014 29.94 843 24.89 9.2 48.6 58 1.3 34.4
00:10 1014 29.94 843 24.89 9 48.2 59 1.3 34.4
00:15 1014 29.94 843 24.89 8.8 47.9 60 1.5 34.7
00:20 1014 29.94 843 24.89 8.7 47.6 61 1.6 34.8
00:25 1014 29.94 843 24.89 8.6 47.4 61 1.5 34.8
00:30 1014 29.94 843 24.89 8.6 47.4 62 1.7 35
00:35 1014 29.94 843 24.89 8.6 47.4 62 1.8 35.3
00:40 1014 29.94 843 24.89 8.6 47.4 63 1.9 35.4
00:45 1014 29.94 843 24.89 8.6 47.5 63 2 35.6
00:50 1014 29.94 843 24.89 8.6 47.5 63 2.1 35.7
00:55 1014 29.94 843 24.89 8.6 47.4 64 2.1 35.8
01:00 1014 29.94 843 24.89 8.5 47.4 64 2.2 36
01:05 1014 29.94 843 24.89 8.5 47.4 65 2.3 36.1
01:10 1014 29.94 843 24.89 8.5 47.4 65 2.4 36.3
01:15 1014 29.94 843 24.89 8.5 47.3 66 2.5 36.5
01:20 1014 29.94 843 24.89 8.5 47.3 67 2.7 36.8
01:25 1014 29.94 843 24.89 8.5 47.3 67 2.8 37
01:30 1014 29.94 843 24.89 8.4 47.2 68 2.9 37.3
01:35 1014 29.94 843 24.89 8.4 47.1 69 3 37.4
01:40 1014 29.94 843 24.89 8.4 47.1 69 3.1 37.5
01:45 1014 29.94 843 24.89 8.3 47 69 3.1 37.5
01:50 1014 29.94 843 24.89 8.2 46.8 69 3 37.4
01:55 1014 29.94 843 24.89 8.2 46.8 69 3 37.4
02:00 1014 29.94 843 24.89 8.2 46.7 70 3 37.4
02:05 1014 29.94 843 24.89 8.1 46.6 70 3 37.4
02:10 1014 29.94 843 24.89 8.1 46.5 71 3.1 37.5
02:15 1014 29.94 843 24.89 8 46.4 71 3.1 37.6
02:20 1014 29.94 843 24.89 7.9 46.2 71 3 37.4
02:25 1013 29.91 843 24.89 8 46.3 71 3 37.3
02:30 1013 29.91 843 24.89 8 46.3 71 3 37.3
02:35 1013 29.91 843 24.89 7.8 46.1 71 3 37.4
02:40 1013 29.91 843 24.89 7.7 45.9 72 3 37.3
02:45 1013 29.91 843 24.89 7.7 45.8 72 3 37.4
02:50 1013 29.91 842 24.86 7.7 45.8 72 3 37.4
02:55 1013 29.91 842 24.86 7.7 45.9 72 3.1 37.6
03:00 1013 29.91 842 24.86 7.7 45.8 73 3.1 37.6
03:05 1013 29.91 842 24.86 7.6 45.6 73 3.1 37.6
03:10 1013 29.91 842 24.86 7.6 45.6 73 3.1 37.6
03:15 1013 29.91 842 24.86 7.5 45.5 74 3.1 37.6
03:20 1013 29.91 843 24.89 7.5 45.4 74 3.1 37.6
03:25 1013 29.91 842 24.86 7.4 45.4 74 3.1 37.6
03:30 1013 29.91 842 24.86 7.4 45.4 74 3.1 37.5
03:35 1013 29.91 842 24.86 7.5 45.4 73 2.9 37.3
03:40 1013 29.91 842 24.86 7.5 45.5 73 2.9 37.3
03:45 1013 29.91 842 24.86 7.5 45.5 72 2.9 37.2
03:50 1013 29.91 842 24.86 7.5 45.5 72 2.8 37
03:55 1013 29.91 842 24.86 7.5 45.6 72 2.7 36.9
04:00 1013 29.91 842 24.86 7.5 45.6 71 2.7 36.9
04:05 1013 29.91 842 24.86 7.5 45.5 71 2.7 36.8
04:10 1013 29.91 842 24.86 7.5 45.5 71 2.7 36.8
04:15 1013 29.91 842 24.86 7.5 45.4 71 2.6 36.7
04:20 1013 29.91 842 24.86 7.5 45.4 72 2.7 36.8
04:25 1013 29.91 842 24.86 7.5 45.4 72 2.7 36.9
04:30 1013 29.91 842 24.86 7.4 45.3 72 2.7 36.9
04:35 1013 29.91 842 24.86 7.4 45.3 72 2.8 37
04:40 1013 29.91 842 24.86 7.4 45.3 73 2.8 37
04:45 1013 29.91 842 24.86 7.4 45.3 73 2.8 37.1
04:50 1013 29.91 842 24.86 7.4 45.3 73 2.9 37.2
04:55 1013 29.91 842 24.86 7.4 45.3 73 2.9 37.3
05:00 1013 29.91 842 24.86 7.4 45.3 73 2.9 37.3
05:05 1013 29.91 842 24.86 7.4 45.2 73 2.9 37.2
05:10 1013 29.91 842 24.86 7.4 45.3 73 2.9 37.3
05:15 1012 29.88 842 24.86 7.4 45.4 73 2.9 37.2
05:20 1012 29.88 842 24.86 7.5 45.5 72 2.8 37
05:25 1012 29.88 842 24.86 7.5 45.6 72 2.7 36.9
05:30 1012 29.88 842 24.86 7.5 45.6 71 2.7 36.8
05:35 1012 29.88 842 24.86 7.5 45.5 71 2.6 36.7
05:40 1012 29.88 842 24.86 7.4 45.4 71 2.6 36.7
05:45 1012 29.88 842 24.86 7.4 45.3 71 2.6 36.6
05:50 1012 29.88 842 24.86 7.4 45.3 71 2.6 36.6
05:55 1012 29.88 842 24.86 7.4 45.3 72 2.6 36.8
06:00 1012 29.88 842 24.86 7.3 45.2 72 2.7 36.9
06:05 1012 29.88 842 24.86 7.3 45.2 73 2.8 37
06:10 1012 29.88 842 24.86 7.2 45 74 2.9 37.2
06:15 1013 29.91 842 24.86 7.1 44.8 75 3 37.4
06:20 1012 29.88 842 24.86 7 44.6 76 3.1 37.6
06:25 1013 29.91 842 24.86 6.9 44.4 78 3.3 38
06:30 1013 29.91 842 24.86 6.7 44.1 79 3.4 38.1
06:35 1013 29.91 842 24.86 6.6 43.9 82 3.7 38.7
06:40 1013 29.91 842 24.86 6.5 43.7 83 3.8 38.9
06:45 1013 29.91 842 24.86 6.4 43.5 85 4 39.3
06:50 1013 29.91 842 24.86 6.3 43.3 86 4.2 39.5
06:55 1013 29.91 842 24.86 6.1 43 88 4.3 39.7
07:00 1013 29.91 842 24.86 6 42.9 89 4.4 40
07:05 1013 29.91 842 24.86 6 42.7 90 4.5 40
07:10 1013 29.91 842 24.86 5.8 42.4 91 4.5 40.1
07:15 1013 29.91 842 24.86 5.7 42.2 92 4.4 40
07:20 1013 29.91 842 24.86 5.6 42.1 92 4.5 40.1
07:25 1013 29.91 842 24.86 5.6 42.1 93 4.6 40.2
07:30 1013 29.91 842 24.86 5.6 42 94 4.7 40.4
07:35 1013 29.91 842 24.86 5.5 41.9 94 4.7 40.4
07:40 1013 29.91 842 24.86 5.5 41.9 95 4.7 40.5
07:45 1013 29.91 842 24.86 5.5 41.9 96 4.9 40.7
07:50 1013 29.91 842 24.86 5.4 41.7 96 4.9 40.7
07:55 1013 29.91 842 24.86 5.3 41.5 97 4.8 40.7
08:00 1013 29.91 842 24.86 5.3 41.6 98 4.9 40.9
08:05 1013 29.91 842 24.86 5.2 41.4 98 4.9 40.9
08:10 1013 29.91 842 24.86 5.2 41.4 99 5 41
08:15 1013 29.91 842 24.86 5.2 41.3 99 5 41
08:20 1013 29.91 842 24.86 5.2 41.4 99 5.1 41.2
08:25 1013 29.91 842 24.86 5.3 41.6 100 5.3 41.5
08:30 1013 29.91 842 24.86 5.4 41.7 100 5.3 41.6
08:35 1013 29.91 842 24.86 5.4 41.7 163 12.6 54.7
08:40 1013 29.91 842 24.86 5.4 41.7 164 12.6 54.7
08:45 1013 29.91 842 24.86 5.3 41.6 164 12.6 54.6
08:50 1013 29.91 842 24.86 5.2 41.3 164 12.4 54.3
08:55 1013 29.91 842 24.86 5.2 41.4 164 12.4 54.4
09:00 1013 29.91 842 24.86 5.3 41.5 164 12.5 54.5
09:05 1013 29.91 842 24.86 5.4 41.6 164 12.6 54.7
09:10 1013 29.91 842 24.86 5.3 41.6 164 12.6 54.6
09:15 1013 29.91 842 24.86 5.5 41.9 164 12.7 54.9
09:20 1013 29.91 842 24.86 5.7 42.3 164 13 55.4
09:25 1013 29.91 842 24.86 5.4 41.8 164 12.7 54.8
09:30 1013 29.91 842 24.86 5.5 41.9 164 12.7 54.9
09:35 1013 29.91 842 24.86 5.6 42 164 12.8 55.1
09:40 1013 29.91 842 24.86 5.5 42 164 12.8 55
09:45 1013 29.91 842 24.86 5.4 41.8 164 12.7 54.8
09:50 1013 29.91 842 24.86 5.6 42.1 164 12.9 55.2
09:55 1013 29.91 842 24.86 5.8 42.4 164 13 55.4
10:00 1013 29.91 842 24.86 5.8 42.5 164 13.1 55.6
10:05 1013 29.91 842 24.86 5.9 42.5 164 13.1 55.6
10:10 1013 29.91 842 24.86 5.9 42.7 164 13.2 55.7
10:15 1013 29.91 842 24.86 5.5 41.9 164 12.7 54.9
10:20 1013 29.91 842 24.86 5.5 41.9 164 12.8 55
10:25 1013 29.91 842 24.86 5.7 42.3 164 13 55.3
10:30 1013 29.91 842 24.86 5.8 42.5 164 13.1 55.6
10:35 1013 29.91 842 24.86 5.9 42.6 164 13.1 55.7
10:40 1013 29.91 842 24.86 6 42.7 164 13.2 55.8
10:45 1013 29.91 842 24.86 6 42.8 164 13.3 55.9
10:50 1013 29.91 842 24.86 6 42.7 164 13.2 55.8
10:55 1013 29.91 842 24.86 5.9 42.6 164 13.2 55.7
11:00 1013 29.91 842 24.86 5.7 42.2 164 12.9 55.3
11:05 1013 29.91 842 24.86 5.6 42.1 164 12.9 55.2
11:10 1013 29.91 842 24.86 5.8 42.4 164 13 55.5
11:15 1013 29.91 842 24.86 5.9 42.7 164 13.2 55.8
11:20 1013 29.91 842 24.86 5.8 42.4 164 13.1 55.5
11:25 1013 29.91 842 24.86 5.9 42.6 164 13.1 55.6
11:30 1013 29.91 842 24.86 6.2 43.1 164 13.5 56.2
11:35 1013 29.91 842 24.86 6.2 43.1 164 13.4 56.2
11:40 1013 29.91 842 24.86 5.9 42.7 164 13.2 55.8
11:45 1013 29.91 842 24.86 6.2 43.1 164 13.4 56.2
11:50 1013 29.91 842 24.86 6.1 43 164 13.4 56.1
11:55 1013 29.91 842 24.86 6 42.8 164 13.3 55.9
12:00 1013 29.91 842 24.86 6 42.8 164 13.3 55.9
12:05 1013 29.91 842 24.86 6.1 43 164 13.4 56.1
12:10 1013 29.91 842 24.86 6.2 43.1 164 13.4 56.2
12:15 1013 29.91 842 24.86 6.4 43.6 164 13.7 56.7
12:20 1013 29.91 842 24.86 6.8 44.2 164 14.1 57.3
12:25 1013 29.91 842 24.86 6.9 44.5 92 5.7 42.3
12:30 1013 29.91 842 24.86 7.2 45 90 5.6 42.1
12:35 1013 29.91 842 24.86 7.3 45.1 89 5.6 42.2
12:40 1013 29.91 842 24.86 7.3 45.2 88 5.4 41.8
12:45 1013 29.91 842 24.86 7 44.7 88 5.2 41.4
12:50 1013 29.91 842 24.86 7.1 44.8 88 5.2 41.4
12:55 1013 29.91 842 24.86 7.4 45.4 88 5.6 42
13:00 1013 29.91 842 24.86 8 46.5 84 5.5 41.9
13:05 1013 29.91 842 24.86 8.3 46.9 84 5.7 42.3
13:10 1013 29.91 842 24.86 8.6 47.5 81 5.6 42
13:15 1013 29.91 842 24.86 8.6 47.5 79 5.1 41.2
13:20 1013 29.91 842 24.86 8.4 47.2 80 5.2 41.4
13:25 1013 29.91 842 24.86 8.9 48.1 77 5.1 41.2
13:30 1013 29.91 842 24.86 8.9 47.9 76 5 40.9
13:35 1013 29.91 842 24.86 8.7 47.7 76 4.7 40.5
13:40 1013 29.91 842 24.86 8.7 47.7 75 4.4 40
13:45 1013 29.91 842 24.86 9 48.1 72 4.3 39.7
13:50 1013 29.91 842 24.86 8.9 48.1 73 4.3 39.7
13:55 1013 29.91 842 24.86 9.1 48.3 73 4.5 40
14:00 1013 29.91 842 24.86 9.5 49 71 4.5 40.2
14:05 1012 29.88 842 24.86 9.7 49.4 72 4.9 40.9
14:10 1012 29.88 842 24.86 9.9 49.8 70 4.7 40.4
14:15 1012 29.88 842 24.86 9.8 49.7 70 4.6 40.2
14:20 1012 29.88 842 24.86 9.9 49.7 69 4.5 40.1
14:25 1012 29.88 842 24.86 10.2 50.3 69 4.8 40.6
14:30 1012 29.88 842 24.86 9.7 49.4 72 4.9 40.9
14:35 1012 29.88 842 24.86 9.7 49.4 71 4.6 40.3
14:40 1012 29.88 841 24.83 9.9 49.9 69 4.6 40.2
14:45 1012 29.88 841 24.83 10.2 50.3 68 4.6 40.3
14:50 1012 29.88 841 24.83 9.9 49.8 71 4.9 40.8
14:55 1012 29.88 841 24.83 10.1 50.1 69 4.7 40.5
15:00 1012 29.88 841 24.83 10.6 51.1 65 4.5 40
15:05 1012 29.88 841 24.83 10.8 51.5 65 4.5 40
15:10 1012 29.88 841 24.83 10.9 51.5 65 4.5 40.1
15:15 1012 29.88 841 24.83 10.4 50.7 67 4.5 40.1
15:20 1012 29.88 841 24.83 10 50 68 4.3 39.8
15:25 1012 29.88 841 24.83 9.8 49.6 69 4.3 39.8
15:30 1012 29.88 841 24.83 9.7 49.4 69 4.4 39.9
15:35 1012 29.88 841 24.83 9.6 49.3 70 4.5 40
15:40 1012 29.88 841 24.83 9.7 49.5 70 4.5 40.1
15:45 1012 29.88 841 24.83 9.5 49.1 70 4.4 39.8
15:50 1012 29.88 841 24.83 9.5 49.1 70 4.3 39.7
15:55 1012 29.88 841 24.83 9.3 48.7 70 4.1 39.4
16:00 1012 29.88 841 24.83 8.9 48.1 72 4.1 39.4
16:05 1012 29.88 841 24.83 8.9 48 74 4.6 40.3
16:10 1012 29.88 841 24.83 8.7 47.7 76 4.8 40.7
16:15 1012 29.88 841 24.83 8.5 47.3 78 4.9 40.8
16:20 1012 29.88 841 24.83 8.5 47.4 80 5.3 41.6
16:25 1012 29.88 841 24.83 8.4 47.1 83 5.6 42.1
16:30 1012 29.88 841 24.83 7.9 46.2 86 5.6 42.1
16:35 1012 29.88 841 24.83 7.8 46 87 5.7 42.3
16:40 1012 29.88 841 24.83 7.9 46.2 87 5.9 42.7
16:45 1012 29.88 842 24.86 7.9 46.1 90 6.3 43.3
16:50 1012 29.88 842 24.86 7.8 46.1 91 6.4 43.6
16:55 1012 29.88 842 24.86 7.7 45.9 93 6.6 43.9
17:00 1012 29.88 842 24.86 7.8 46.1 93 6.7 44.1
17:05 1012 29.88 842 24.86 7.7 45.8 94 6.7 44.1
17:10 1012 29.88 842 24.86 7.8 46.1 94 7 44.6
17:15 1013 29.91 842 24.86 7.9 46.1 92 6.7 44.1
17:20 1013 29.91 842 24.86 7.2 44.9 92 6 42.8
17:25 1013 29.91 842 24.86 7.2 44.9 92 5.9 42.6
17:30 1013 29.91 842 24.86 7.2 44.9 93 6.1 43
17:35 1013 29.91 842 24.86 7.4 45.3 93 6.4 43.5
17:40 1013 29.91 842 24.86 7.2 44.9 93 6.1 42.9
17:45 1013 29.91 842 24.86 6.7 44.1 93 5.7 42.2
17:50 1013 29.91 842 24.86 6.4 43.6 94 5.6 42
17:55 1013 29.91 842 24.86 6.4 43.6 95 5.6 42.2
18:00 1013 29.91 842 24.86 6.4 43.5 94 5.6 42
18:05 1013 29.91 842 24.86 6.4 43.5 95 5.6 42.1
18:10 1013 29.91 842 24.86 6.5 43.7 95 5.8 42.4
18:15 1013 29.91 842 24.86 6.5 43.8 95 5.7 42.3
18:20 1013 29.91 842 24.86 6.4 43.5 95 5.6 42.1
18:25 1013 29.91 842 24.86 6.5 43.6 95 5.8 42.4
18:30 1013 29.91 842 24.86 6.6 43.8 95 5.9 42.6
18:35 1013 29.91 842 24.86 6.7 44 96 6 42.9
18:40 1013 29.91 842 24.86 6.9 44.3 96 6.3 43.3
18:45 1013 29.91 842 24.86 6.9 44.4 96 6.3 43.3
18:50 1013 29.91 842 24.86 6.8 44.2 96 6.2 43.1
18:55 1013 29.91 842 24.86 6.8 44.2 96 6.2 43.2
19:00 1013 29.91 842 24.86 6.9 44.4 96 6.3 43.3
19:05 1013 29.91 842 24.86 6.9 44.4 96 6.3 43.3
19:10 1013 29.91 842 24.86 7.1 44.7 96 6.4 43.5
19:15 1013 29.91 842 24.86 7.2 44.9 95 6.4 43.5
19:20 1013 29.91 842 24.86 7.3 45.1 94 6.3 43.4
19:25 1013 29.91 842 24.86 7.3 45.2 94 6.4 43.6
19:30 1013 29.91 842 24.86 7.5 45.5 94 6.6 43.9
19:35 1013 29.91 842 24.86 7.7 45.8 94 6.8 44.2
19:40 1013 29.91 842 24.86 7.7 45.8 93 6.5 43.8
19:45 1013 29.91 842 24.86 7.4 45.2 93 6.3 43.4
19:50 1013 29.91 842 24.86 7.3 45.2 93 6.3 43.3
19:55 1013 29.91 842 24.86 7.3 45.1 94 6.3 43.4
20:00 1013 29.91 842 24.86 7.4 45.2 94 6.4 43.5
20:05 1013 29.91 842 24.86 7.4 45.4 93 6.4 43.6
20:10 1013 29.91 842 24.86 7.4 45.4 93 6.4 43.5
20:15 1013 29.91 842 24.86 7.4 45.4 93 6.4 43.4
20:20 1013 29.91 842 24.86 7.5 45.4 93 6.4 43.5
20:25 1013 29.91 842 24.86 7.4 45.4 93 6.4 43.5
20:30 1013 29.91 842 24.86 7.4 45.3 93 6.3 43.4
20:35 1013 29.91 842 24.86 7.4 45.3 93 6.3 43.3
20:40 1013 29.91 842 24.86 6.9 44.4 91 5.6 42.1
20:45 1013 29.91 842 24.86 6.7 44.1 92 5.5 41.9
20:50 1013 29.91 842 24.86 6.7 44.1 92 5.6 42.1
20:55 1013 29.91 842 24.86 6.8 44.3 93 5.8 42.4
21:00 1013 29.91 842 24.86 6.9 44.5 94 6 42.8
21:05 1013 29.91 842 24.86 7 44.6 94 6.1 43
21:10 1013 29.91 842 24.86 7 44.6 93 6 42.8
21:15 1013 29.91 842 24.86 7 44.6 93 6 42.8
21:20 1013 29.91 842 24.86 6.7 44.1 94 5.8 42.5
21:25 1013 29.91 842 24.86 6.5 43.6 95 5.7 42.2
21:30 1013 29.91 842 24.86 6.3 43.3 94 5.4 41.8
21:35 1013 29.91 842 24.86 6 42.9 94 5.1 41.3
21:40 1013 29.91 843 24.89 5.9 42.6 94 5 41
21:45 1013 29.91 843 24.89 5.8 42.5 94 4.9 40.9
21:50 1013 29.91 843 24.89 5.9 42.6 94 5 40.9
21:55 1013 29.91 843 24.89 5.9 42.6 93 4.9 40.8
22:00 1013 29.91 843 24.89 5.8 42.5 93 4.8 40.7
22:05 1013 29.91 843 24.89 5.6 42.1 94 4.7 40.5
22:10 1014 29.94 843 24.89 5.4 41.6 94 4.5 40.1
22:15 1014 29.94 843 24.89 5.3 41.6 95 4.5 40.2
22:20 1014 29.94 843 24.89 5.3 41.6 94 4.5 40
22:25 1014 29.94 843 24.89 5.2 41.4 94 4.3 39.8
22:30 1014 29.94 843 24.89 5.1 41.2 93 4.1 39.4
22:35 1014 29.94 843 24.89 5 41 93 4 39.1
22:40 1014 29.94 843 24.89 5 40.9 93 3.9 39
22:45 1014 29.94 843 24.89 5 41.1 92 3.9 38.9
22:50 1014 29.94 843 24.89 5.1 41.2 91 3.8 38.9
22:55 1014 29.94 843 24.89 5.1 41.2 91 3.8 38.9
23:00 1014 29.94 843 24.89 5.1 41.3 91 3.8 38.9
23:05 1014 29.94 843 24.89 5.3 41.5 90 3.8 38.8
23:10 1014 29.94 843 24.89 5.3 41.5 90 3.8 38.8
23:15 1014 29.94 843 24.89 5.3 41.6 90 3.8 38.8
23:20 1014 29.94 843 24.89 5.4 41.7 89 3.7 38.7
23:25 1014 29.94 843 24.89 5.5 41.9 87 3.6 38.5
23:30 1014 29.94 843 24.89 5.6 42 87 3.6 38.5
23:35 1013 29.91 843 24.89 5.5 41.9 88 3.7 38.7
23:40 1013 29.91 843 24.89 5.5 41.8 88 3.6 38.4
23:45 1013 29.91 843 24.89 5.5 41.9 87 3.5 38.3
23:50 1013 29.91 843 24.89 5.6 42 86 3.5 38.3
23:55 1013 29.91 843 24.89 5.5 42 86 3.4 38.1
24:00 1013 29.91 843 24.89 5.5 41.9 87 3.5 38.3